sensor_id;sensor_type;location;lat;lon;timestamp;P1;durP1;ratioP1;P2;durP2;ratioP2
38717;SDS011;24468;52.128;9.278;2023-03-20T00:02:02;27.52;;;18.50;;
38717;SDS011;24468;52.128;9.278;2023-03-20T00:04:29;24.40;;;16.63;;
38717;SDS011;24468;52.128;9.278;2023-03-20T00:06:55;25.10;;;17.00;;
38717;SDS011;24468;52.128;9.278;2023-03-20T00:09:20;26.92;;;17.83;;
38717;SDS011;24468;52.128;9.278;2023-03-20T00:11:47;25.02;;;17.30;;
38717;SDS011;24468;52.128;9.278;2023-03-20T00:14:16;26.30;;;16.90;;
38717;SDS011;24468;52.128;9.278;2023-03-20T00:16:44;29.13;;;18.23;;
38717;SDS011;24468;52.128;9.278;2023-03-20T00:19:27;27.23;;;17.23;;
38717;SDS011;24468;52.128;9.278;2023-03-20T00:21:54;29.42;;;17.65;;
38717;SDS011;24468;52.128;9.278;2023-03-20T00:24:20;31.20;;;18.23;;
38717;SDS011;24468;52.128;9.278;2023-03-20T00:26:47;26.92;;;18.35;;
38717;SDS011;24468;52.128;9.278;2023-03-20T00:29:20;27.90;;;18.25;;
38717;SDS011;24468;52.128;9.278;2023-03-20T00:31:51;25.85;;;16.98;;
38717;SDS011;24468;52.128;9.278;2023-03-20T00:34:20;28.08;;;18.63;;
38717;SDS011;24468;52.128;9.278;2023-03-20T00:36:47;32.38;;;18.83;;
38717;SDS011;24468;52.128;9.278;2023-03-20T00:39:14;28.58;;;18.08;;
38717;SDS011;24468;52.128;9.278;2023-03-20T00:44:17;30.58;;;18.67;;
38717;SDS011;24468;52.128;9.278;2023-03-20T00:47:02;30.77;;;19.70;;
38717;SDS011;24468;52.128;9.278;2023-03-20T00:49:46;34.08;;;17.88;;
38717;SDS011;24468;52.128;9.278;2023-03-20T00:52:14;25.73;;;16.70;;
38717;SDS011;24468;52.128;9.278;2023-03-20T00:54:42;27.23;;;16.55;;
38717;SDS011;24468;52.128;9.278;2023-03-20T00:57:08;29.20;;;16.65;;
38717;SDS011;24468;52.128;9.278;2023-03-20T00:59:47;26.67;;;16.48;;
38717;SDS011;24468;52.128;9.278;2023-03-20T01:02:20;29.40;;;16.60;;
38717;SDS011;24468;52.128;9.278;2023-03-20T01:04:47;28.10;;;16.95;;
38717;SDS011;24468;52.128;9.278;2023-03-20T01:07:13;27.90;;;16.90;;
38717;SDS011;24468;52.128;9.278;2023-03-20T01:09:39;25.35;;;15.27;;
38717;SDS011;24468;52.128;9.278;2023-03-20T01:12:05;30.27;;;18.52;;
38717;SDS011;24468;52.128;9.278;2023-03-20T01:14:32;24.58;;;15.52;;
38717;SDS011;24468;52.128;9.278;2023-03-20T01:16:58;29.90;;;16.50;;
38717;SDS011;24468;52.128;9.278;2023-03-20T01:19:24;28.85;;;16.98;;
38717;SDS011;24468;52.128;9.278;2023-03-20T01:21:50;27.50;;;16.67;;
38717;SDS011;24468;52.128;9.278;2023-03-20T01:24:15;29.90;;;17.70;;
38717;SDS011;24468;52.128;9.278;2023-03-20T01:26:42;33.15;;;17.33;;
38717;SDS011;24468;52.128;9.278;2023-03-20T01:29:43;30.52;;;16.70;;
38717;SDS011;24468;52.128;9.278;2023-03-20T01:32:01;29.45;;;15.88;;
38717;SDS011;24468;52.128;9.278;2023-03-20T01:34:27;27.75;;;16.05;;
38717;SDS011;24468;52.128;9.278;2023-03-20T01:36:53;28.67;;;16.15;;
38717;SDS011;24468;52.128;9.278;2023-03-20T01:39:21;28.83;;;15.65;;
38717;SDS011;24468;52.128;9.278;2023-03-20T01:41:55;26.75;;;15.77;;
38717;SDS011;24468;52.128;9.278;2023-03-20T01:44:23;29.83;;;15.02;;
38717;SDS011;24468;52.128;9.278;2023-03-20T01:46:55;28.83;;;16.33;;
38717;SDS011;24468;52.128;9.278;2023-03-20T01:51:47;28.05;;;15.93;;
38717;SDS011;24468;52.128;9.278;2023-03-20T01:59:43;29.92;;;17.20;;
38717;SDS011;24468;52.128;9.278;2023-03-20T02:02:22;28.75;;;15.68;;
38717;SDS011;24468;52.128;9.278;2023-03-20T02:04:53;31.15;;;17.33;;
38717;SDS011;24468;52.128;9.278;2023-03-20T02:07:24;26.90;;;16.35;;
38717;SDS011;24468;52.128;9.278;2023-03-20T02:09:49;32.60;;;18.02;;
38717;SDS011;24468;52.128;9.278;2023-03-20T02:12:16;29.42;;;17.13;;
38717;SDS011;24468;52.128;9.278;2023-03-20T02:14:44;35.85;;;17.55;;
38717;SDS011;24468;52.128;9.278;2023-03-20T02:17:11;30.90;;;17.50;;
38717;SDS011;24468;52.128;9.278;2023-03-20T02:19:45;31.25;;;17.73;;
38717;SDS011;24468;52.128;9.278;2023-03-20T02:22:33;28.58;;;17.60;;
38717;SDS011;24468;52.128;9.278;2023-03-20T02:32:01;34.50;;;17.00;;
38717;SDS011;24468;52.128;9.278;2023-03-20T02:49:32;26.35;;;15.45;;
38717;SDS011;24468;52.128;9.278;2023-03-20T02:55:26;31.52;;;16.50;;
38717;SDS011;24468;52.128;9.278;2023-03-20T02:58:09;24.60;;;15.18;;
38717;SDS011;24468;52.128;9.278;2023-03-20T03:01:13;25.35;;;14.07;;
38717;SDS011;24468;52.128;9.278;2023-03-20T03:04:01;27.65;;;15.68;;
38717;SDS011;24468;52.128;9.278;2023-03-20T03:06:35;28.52;;;16.42;;
38717;SDS011;24468;52.128;9.278;2023-03-20T03:09:12;27.85;;;16.15;;
38717;SDS011;24468;52.128;9.278;2023-03-20T03:11:52;27.58;;;14.75;;
38717;SDS011;24468;52.128;9.278;2023-03-20T03:14:41;30.20;;;17.25;;
38717;SDS011;24468;52.128;9.278;2023-03-20T03:17:12;28.63;;;17.23;;
38717;SDS011;24468;52.128;9.278;2023-03-20T03:19:41;26.08;;;16.73;;
38717;SDS011;24468;52.128;9.278;2023-03-20T03:22:13;33.03;;;16.55;;
38717;SDS011;24468;52.128;9.278;2023-03-20T03:24:44;29.38;;;15.85;;
38717;SDS011;24468;52.128;9.278;2023-03-20T03:27:23;25.70;;;15.20;;
38717;SDS011;24468;52.128;9.278;2023-03-20T03:30:02;22.90;;;13.75;;
38717;SDS011;24468;52.128;9.278;2023-03-20T03:32:40;27.77;;;16.23;;
38717;SDS011;24468;52.128;9.278;2023-03-20T03:35:15;27.98;;;16.45;;
38717;SDS011;24468;52.128;9.278;2023-03-20T03:40:31;26.17;;;15.90;;
38717;SDS011;24468;52.128;9.278;2023-03-20T03:43:12;26.42;;;15.80;;
38717;SDS011;24468;52.128;9.278;2023-03-20T03:45:59;25.63;;;15.50;;
38717;SDS011;24468;52.128;9.278;2023-03-20T03:48:34;28.13;;;14.98;;
38717;SDS011;24468;52.128;9.278;2023-03-20T03:51:13;26.52;;;15.80;;
38717;SDS011;24468;52.128;9.278;2023-03-20T03:53:46;26.33;;;15.35;;
38717;SDS011;24468;52.128;9.278;2023-03-20T03:56:19;27.95;;;15.43;;
38717;SDS011;24468;52.128;9.278;2023-03-20T03:58:50;28.42;;;16.30;;
38717;SDS011;24468;52.128;9.278;2023-03-20T04:01:20;28.10;;;16.42;;
38717;SDS011;24468;52.128;9.278;2023-03-20T04:03:51;29.80;;;17.00;;
38717;SDS011;24468;52.128;9.278;2023-03-20T04:06:21;25.58;;;14.38;;
38717;SDS011;24468;52.128;9.278;2023-03-20T04:08:47;28.30;;;15.27;;
38717;SDS011;24468;52.128;9.278;2023-03-20T04:11:16;25.45;;;15.50;;
38717;SDS011;24468;52.128;9.278;2023-03-20T04:13:45;24.10;;;15.25;;
38717;SDS011;24468;52.128;9.278;2023-03-20T04:16:13;27.23;;;14.65;;
38717;SDS011;24468;52.128;9.278;2023-03-20T04:18:39;29.02;;;15.38;;
38717;SDS011;24468;52.128;9.278;2023-03-20T04:21:05;25.50;;;16.27;;
38717;SDS011;24468;52.128;9.278;2023-03-20T04:23:31;26.45;;;15.82;;
38717;SDS011;24468;52.128;9.278;2023-03-20T04:25:57;26.83;;;16.17;;
38717;SDS011;24468;52.128;9.278;2023-03-20T04:28:23;27.77;;;16.05;;
38717;SDS011;24468;52.128;9.278;2023-03-20T04:30:56;28.27;;;15.77;;
38717;SDS011;24468;52.128;9.278;2023-03-20T04:33:24;29.92;;;17.17;;
38717;SDS011;24468;52.128;9.278;2023-03-20T04:35:51;26.27;;;16.13;;
38717;SDS011;24468;52.128;9.278;2023-03-20T04:38:17;28.58;;;15.95;;
38717;SDS011;24468;52.128;9.278;2023-03-20T04:40:44;30.75;;;17.40;;
38717;SDS011;24468;52.128;9.278;2023-03-20T04:43:10;27.60;;;16.30;;
38717;SDS011;24468;52.128;9.278;2023-03-20T04:45:36;28.52;;;17.30;;
38717;SDS011;24468;52.128;9.278;2023-03-20T04:48:02;29.13;;;16.60;;
38717;SDS011;24468;52.128;9.278;2023-03-20T04:50:28;30.23;;;17.58;;
38717;SDS011;24468;52.128;9.278;2023-03-20T04:52:54;29.48;;;16.80;;
38717;SDS011;24468;52.128;9.278;2023-03-20T04:55:19;27.50;;;17.42;;
38717;SDS011;24468;52.128;9.278;2023-03-20T04:57:46;33.17;;;20.38;;
38717;SDS011;24468;52.128;9.278;2023-03-20T05:00:12;32.92;;;18.95;;
38717;SDS011;24468;52.128;9.278;2023-03-20T05:02:38;34.25;;;17.75;;
38717;SDS011;24468;52.128;9.278;2023-03-20T05:05:04;32.08;;;18.08;;
38717;SDS011;24468;52.128;9.278;2023-03-20T05:07:30;29.70;;;16.88;;
38717;SDS011;24468;52.128;9.278;2023-03-20T05:09:56;29.35;;;17.52;;
38717;SDS011;24468;52.128;9.278;2023-03-20T05:12:22;31.33;;;18.35;;
38717;SDS011;24468;52.128;9.278;2023-03-20T05:14:48;38.03;;;21.17;;
38717;SDS011;24468;52.128;9.278;2023-03-20T05:17:14;37.50;;;22.38;;
38717;SDS011;24468;52.128;9.278;2023-03-20T05:19:40;36.92;;;22.20;;
38717;SDS011;24468;52.128;9.278;2023-03-20T05:22:07;38.70;;;22.42;;
38717;SDS011;24468;52.128;9.278;2023-03-20T05:24:32;34.35;;;20.75;;
38717;SDS011;24468;52.128;9.278;2023-03-20T05:26:58;39.17;;;22.45;;
38717;SDS011;24468;52.128;9.278;2023-03-20T05:29:23;33.08;;;20.40;;
38717;SDS011;24468;52.128;9.278;2023-03-20T05:31:49;35.00;;;21.08;;
38717;SDS011;24468;52.128;9.278;2023-03-20T05:34:14;37.47;;;21.13;;
38717;SDS011;24468;52.128;9.278;2023-03-20T05:36:40;39.58;;;24.33;;
38717;SDS011;24468;52.128;9.278;2023-03-20T05:39:06;34.72;;;21.35;;
38717;SDS011;24468;52.128;9.278;2023-03-20T05:41:31;35.92;;;22.33;;
38717;SDS011;24468;52.128;9.278;2023-03-20T05:43:57;35.53;;;20.17;;
38717;SDS011;24468;52.128;9.278;2023-03-20T05:46:22;32.60;;;20.65;;
38717;SDS011;24468;52.128;9.278;2023-03-20T05:48:48;37.28;;;20.92;;
38717;SDS011;24468;52.128;9.278;2023-03-20T05:51:13;34.47;;;21.08;;
38717;SDS011;24468;52.128;9.278;2023-03-20T05:53:39;31.98;;;20.27;;
38717;SDS011;24468;52.128;9.278;2023-03-20T05:56:05;36.03;;;21.08;;
38717;SDS011;24468;52.128;9.278;2023-03-20T05:58:31;37.42;;;21.83;;
38717;SDS011;24468;52.128;9.278;2023-03-20T06:00:57;33.35;;;20.92;;
38717;SDS011;24468;52.128;9.278;2023-03-20T06:03:22;34.25;;;20.55;;
38717;SDS011;24468;52.128;9.278;2023-03-20T06:05:48;33.50;;;19.90;;
38717;SDS011;24468;52.128;9.278;2023-03-20T06:08:14;33.25;;;20.00;;
38717;SDS011;24468;52.128;9.278;2023-03-20T06:10:40;32.33;;;20.75;;
38717;SDS011;24468;52.128;9.278;2023-03-20T06:13:05;30.13;;;19.35;;
38717;SDS011;24468;52.128;9.278;2023-03-20T06:15:31;35.22;;;22.63;;
38717;SDS011;24468;52.128;9.278;2023-03-20T06:17:56;36.17;;;21.05;;
38717;SDS011;24468;52.128;9.278;2023-03-20T06:20:22;32.33;;;20.80;;
38717;SDS011;24468;52.128;9.278;2023-03-20T06:22:49;28.65;;;18.70;;
38717;SDS011;24468;52.128;9.278;2023-03-20T06:25:15;21.02;;;15.65;;
38717;SDS011;24468;52.128;9.278;2023-03-20T06:27:41;22.98;;;15.05;;
38717;SDS011;24468;52.128;9.278;2023-03-20T06:30:06;23.02;;;16.58;;
38717;SDS011;24468;52.128;9.278;2023-03-20T06:32:33;22.23;;;14.60;;
38717;SDS011;24468;52.128;9.278;2023-03-20T06:34:58;21.85;;;16.20;;
38717;SDS011;24468;52.128;9.278;2023-03-20T06:37:24;21.95;;;14.30;;
38717;SDS011;24468;52.128;9.278;2023-03-20T06:39:50;20.83;;;15.15;;
38717;SDS011;24468;52.128;9.278;2023-03-20T06:42:15;22.75;;;15.45;;
38717;SDS011;24468;52.128;9.278;2023-03-20T06:44:41;21.45;;;15.45;;
38717;SDS011;24468;52.128;9.278;2023-03-20T06:47:07;24.52;;;16.23;;
38717;SDS011;24468;52.128;9.278;2023-03-20T06:49:33;23.20;;;16.88;;
38717;SDS011;24468;52.128;9.278;2023-03-20T06:51:58;23.80;;;14.93;;
38717;SDS011;24468;52.128;9.278;2023-03-20T06:54:24;20.50;;;14.40;;
38717;SDS011;24468;52.128;9.278;2023-03-20T06:56:50;23.50;;;16.50;;
38717;SDS011;24468;52.128;9.278;2023-03-20T06:59:16;21.23;;;15.68;;
38717;SDS011;24468;52.128;9.278;2023-03-20T07:01:42;21.75;;;16.25;;
38717;SDS011;24468;52.128;9.278;2023-03-20T07:04:07;20.42;;;15.63;;
38717;SDS011;24468;52.128;9.278;2023-03-20T07:06:33;20.75;;;14.63;;
38717;SDS011;24468;52.128;9.278;2023-03-20T07:08:58;22.70;;;16.13;;
38717;SDS011;24468;52.128;9.278;2023-03-20T07:11:25;17.58;;;12.52;;
38717;SDS011;24468;52.128;9.278;2023-03-20T07:13:51;16.98;;;12.30;;
38717;SDS011;24468;52.128;9.278;2023-03-20T07:16:16;16.08;;;11.05;;
38717;SDS011;24468;52.128;9.278;2023-03-20T07:18:42;15.07;;;11.05;;
38717;SDS011;24468;52.128;9.278;2023-03-20T07:21:07;14.77;;;10.40;;
38717;SDS011;24468;52.128;9.278;2023-03-20T07:23:33;13.95;;;10.43;;
38717;SDS011;24468;52.128;9.278;2023-03-20T07:25:59;13.95;;;10.25;;
38717;SDS011;24468;52.128;9.278;2023-03-20T07:28:24;16.52;;;11.43;;
38717;SDS011;24468;52.128;9.278;2023-03-20T07:30:50;16.00;;;11.18;;
38717;SDS011;24468;52.128;9.278;2023-03-20T07:33:16;18.90;;;12.20;;
38717;SDS011;24468;52.128;9.278;2023-03-20T07:35:42;15.57;;;11.85;;
38717;SDS011;24468;52.128;9.278;2023-03-20T07:38:07;17.92;;;12.50;;
38717;SDS011;24468;52.128;9.278;2023-03-20T07:40:33;20.73;;;12.35;;
38717;SDS011;24468;52.128;9.278;2023-03-20T07:42:58;17.23;;;13.23;;
38717;SDS011;24468;52.128;9.278;2023-03-20T07:45:25;13.88;;;11.20;;
38717;SDS011;24468;52.128;9.278;2023-03-20T07:47:50;17.10;;;11.02;;
38717;SDS011;24468;52.128;9.278;2023-03-20T07:50:16;18.70;;;11.93;;
38717;SDS011;24468;52.128;9.278;2023-03-20T07:52:48;14.75;;;11.55;;
38717;SDS011;24468;52.128;9.278;2023-03-20T07:55:15;14.50;;;10.63;;
38717;SDS011;24468;52.128;9.278;2023-03-20T07:57:41;12.60;;;9.48;;
38717;SDS011;24468;52.128;9.278;2023-03-20T08:00:07;13.63;;;10.27;;
38717;SDS011;24468;52.128;9.278;2023-03-20T08:02:35;15.45;;;10.95;;
38717;SDS011;24468;52.128;9.278;2023-03-20T08:05:01;14.48;;;9.60;;
38717;SDS011;24468;52.128;9.278;2023-03-20T08:07:28;15.80;;;9.88;;
38717;SDS011;24468;52.128;9.278;2023-03-20T08:09:54;15.02;;;9.63;;
38717;SDS011;24468;52.128;9.278;2023-03-20T08:12:20;14.77;;;10.60;;
38717;SDS011;24468;52.128;9.278;2023-03-20T08:14:45;17.02;;;10.57;;
38717;SDS011;24468;52.128;9.278;2023-03-20T08:17:11;14.90;;;11.07;;
38717;SDS011;24468;52.128;9.278;2023-03-20T08:19:37;17.13;;;10.88;;
38717;SDS011;24468;52.128;9.278;2023-03-20T08:22:03;15.70;;;11.98;;
38717;SDS011;24468;52.128;9.278;2023-03-20T08:24:28;16.80;;;11.93;;
38717;SDS011;24468;52.128;9.278;2023-03-20T08:26:54;20.13;;;12.48;;
38717;SDS011;24468;52.128;9.278;2023-03-20T08:29:19;19.30;;;13.73;;
38717;SDS011;24468;52.128;9.278;2023-03-20T08:31:45;21.00;;;14.48;;
38717;SDS011;24468;52.128;9.278;2023-03-20T08:34:11;20.08;;;13.68;;
38717;SDS011;24468;52.128;9.278;2023-03-20T08:36:37;24.10;;;15.45;;
38717;SDS011;24468;52.128;9.278;2023-03-20T08:39:06;25.02;;;18.17;;
38717;SDS011;24468;52.128;9.278;2023-03-20T08:41:33;22.20;;;16.42;;
38717;SDS011;24468;52.128;9.278;2023-03-20T08:44:02;27.73;;;17.75;;
38717;SDS011;24468;52.128;9.278;2023-03-20T08:46:29;24.73;;;17.63;;
38717;SDS011;24468;52.128;9.278;2023-03-20T08:48:54;27.73;;;20.20;;
38717;SDS011;24468;52.128;9.278;2023-03-20T08:51:22;32.38;;;20.40;;
38717;SDS011;24468;52.128;9.278;2023-03-20T08:53:48;28.80;;;19.27;;
38717;SDS011;24468;52.128;9.278;2023-03-20T08:56:14;30.35;;;20.10;;
38717;SDS011;24468;52.128;9.278;2023-03-20T08:58:39;31.50;;;22.00;;
38717;SDS011;24468;52.128;9.278;2023-03-20T09:01:05;27.70;;;22.27;;
38717;SDS011;24468;52.128;9.278;2023-03-20T09:03:33;31.05;;;20.77;;
38717;SDS011;24468;52.128;9.278;2023-03-20T09:05:59;24.83;;;19.73;;
38717;SDS011;24468;52.128;9.278;2023-03-20T09:08:24;25.92;;;20.10;;
38717;SDS011;24468;52.128;9.278;2023-03-20T09:10:50;25.95;;;20.10;;
38717;SDS011;24468;52.128;9.278;2023-03-20T09:13:16;26.00;;;20.02;;
38717;SDS011;24468;52.128;9.278;2023-03-20T09:15:42;24.67;;;18.42;;
38717;SDS011;24468;52.128;9.278;2023-03-20T09:18:08;23.35;;;17.42;;
38717;SDS011;24468;52.128;9.278;2023-03-20T09:20:33;19.73;;;16.20;;
38717;SDS011;24468;52.128;9.278;2023-03-20T09:22:59;20.05;;;15.60;;
38717;SDS011;24468;52.128;9.278;2023-03-20T09:25:25;19.40;;;14.63;;
38717;SDS011;24468;52.128;9.278;2023-03-20T09:27:51;20.85;;;15.82;;
38717;SDS011;24468;52.128;9.278;2023-03-20T09:30:19;17.95;;;13.52;;
38717;SDS011;24468;52.128;9.278;2023-03-20T09:32:50;17.23;;;14.38;;
38717;SDS011;24468;52.128;9.278;2023-03-20T09:35:16;16.20;;;13.77;;
38717;SDS011;24468;52.128;9.278;2023-03-20T09:37:42;17.70;;;15.80;;
38717;SDS011;24468;52.128;9.278;2023-03-20T09:40:16;15.82;;;13.57;;
38717;SDS011;24468;52.128;9.278;2023-03-20T09:43:12;14.70;;;13.15;;
38717;SDS011;24468;52.128;9.278;2023-03-20T09:46:28;14.02;;;12.40;;
38717;SDS011;24468;52.128;9.278;2023-03-20T09:49:37;17.33;;;14.75;;
38717;SDS011;24468;52.128;9.278;2023-03-20T09:52:29;15.17;;;13.40;;
38717;SDS011;24468;52.128;9.278;2023-03-20T09:55:00;15.75;;;14.15;;
38717;SDS011;24468;52.128;9.278;2023-03-20T09:57:36;16.33;;;13.35;;
38717;SDS011;24468;52.128;9.278;2023-03-20T10:00:07;16.15;;;12.80;;
38717;SDS011;24468;52.128;9.278;2023-03-20T10:05:30;13.85;;;12.45;;
38717;SDS011;24468;52.128;9.278;2023-03-20T10:08:09;15.27;;;11.88;;
38717;SDS011;24468;52.128;9.278;2023-03-20T10:10:44;13.70;;;11.38;;
38717;SDS011;24468;52.128;9.278;2023-03-20T10:14:00;11.80;;;10.48;;
38717;SDS011;24468;52.128;9.278;2023-03-20T10:17:18;11.45;;;10.07;;
38717;SDS011;24468;52.128;9.278;2023-03-20T10:20:33;9.57;;;8.52;;
38717;SDS011;24468;52.128;9.278;2023-03-20T10:26:10;11.20;;;9.27;;
38717;SDS011;24468;52.128;9.278;2023-03-20T10:28:45;10.48;;;8.18;;
38717;SDS011;24468;52.128;9.278;2023-03-20T10:31:58;10.50;;;9.40;;
38717;SDS011;24468;52.128;9.278;2023-03-20T10:34:45;10.07;;;8.63;;
38717;SDS011;24468;52.128;9.278;2023-03-20T10:40:58;13.80;;;8.65;;
38717;SDS011;24468;52.128;9.278;2023-03-20T10:43:30;11.48;;;8.27;;
38717;SDS011;24468;52.128;9.278;2023-03-20T10:46:06;10.88;;;8.48;;
38717;SDS011;24468;52.128;9.278;2023-03-20T10:48:45;10.55;;;9.45;;
38717;SDS011;24468;52.128;9.278;2023-03-20T10:51:21;12.13;;;9.27;;
38717;SDS011;24468;52.128;9.278;2023-03-20T10:53:59;13.85;;;9.55;;
38717;SDS011;24468;52.128;9.278;2023-03-20T10:59:14;13.48;;;11.98;;
38717;SDS011;24468;52.128;9.278;2023-03-20T11:01:50;14.13;;;10.98;;
38717;SDS011;24468;52.128;9.278;2023-03-20T11:04:16;15.90;;;12.18;;
38717;SDS011;24468;52.128;9.278;2023-03-20T11:06:45;13.10;;;11.45;;
38717;SDS011;24468;52.128;9.278;2023-03-20T11:09:20;13.52;;;12.13;;
38717;SDS011;24468;52.128;9.278;2023-03-20T11:11:51;16.27;;;12.43;;
38717;SDS011;24468;52.128;9.278;2023-03-20T11:14:25;14.30;;;12.15;;
38717;SDS011;24468;52.128;9.278;2023-03-20T11:17:03;16.77;;;12.27;;
38717;SDS011;24468;52.128;9.278;2023-03-20T11:19:38;15.50;;;12.35;;
38717;SDS011;24468;52.128;9.278;2023-03-20T11:22:26;15.88;;;12.68;;
38717;SDS011;24468;52.128;9.278;2023-03-20T11:25:02;16.35;;;12.80;;
38717;SDS011;24468;52.128;9.278;2023-03-20T11:27:30;12.80;;;11.57;;
38717;SDS011;24468;52.128;9.278;2023-03-20T11:29:59;13.75;;;11.40;;
38717;SDS011;24468;52.128;9.278;2023-03-20T11:32:30;12.35;;;11.07;;
38717;SDS011;24468;52.128;9.278;2023-03-20T11:35:09;14.48;;;12.50;;
38717;SDS011;24468;52.128;9.278;2023-03-20T11:37:50;12.15;;;10.23;;
38717;SDS011;24468;52.128;9.278;2023-03-20T11:40:23;14.82;;;10.02;;
38717;SDS011;24468;52.128;9.278;2023-03-20T11:42:56;10.30;;;9.10;;
38717;SDS011;24468;52.128;9.278;2023-03-20T11:45:37;9.52;;;8.52;;
38717;SDS011;24468;52.128;9.278;2023-03-20T11:48:12;11.80;;;8.48;;
38717;SDS011;24468;52.128;9.278;2023-03-20T11:50:45;8.25;;;7.28;;
38717;SDS011;24468;52.128;9.278;2023-03-20T11:53:32;8.45;;;7.75;;
38717;SDS011;24468;52.128;9.278;2023-03-20T11:56:27;9.02;;;7.10;;
38717;SDS011;24468;52.128;9.278;2023-03-20T12:01:39;8.15;;;6.63;;
38717;SDS011;24468;52.128;9.278;2023-03-20T12:04:38;8.82;;;6.30;;
38717;SDS011;24468;52.128;9.278;2023-03-20T12:07:11;7.72;;;6.28;;
38717;SDS011;24468;52.128;9.278;2023-03-20T12:09:47;8.30;;;6.20;;
38717;SDS011;24468;52.128;9.278;2023-03-20T12:15:02;6.45;;;5.55;;
38717;SDS011;24468;52.128;9.278;2023-03-20T12:17:45;9.02;;;6.93;;
38717;SDS011;24468;52.128;9.278;2023-03-20T12:20:30;6.28;;;5.68;;
38717;SDS011;24468;52.128;9.278;2023-03-20T12:23:12;8.60;;;5.75;;
38717;SDS011;24468;52.128;9.278;2023-03-20T12:26:09;10.93;;;6.20;;
38717;SDS011;24468;52.128;9.278;2023-03-20T12:31:48;8.55;;;5.28;;
38717;SDS011;24468;52.128;9.278;2023-03-20T12:34:34;6.43;;;5.82;;
38717;SDS011;24468;52.128;9.278;2023-03-20T12:37:08;8.65;;;6.00;;
38717;SDS011;24468;52.128;9.278;2023-03-20T12:39:43;8.00;;;5.47;;
38717;SDS011;24468;52.128;9.278;2023-03-20T12:42:29;7.82;;;6.90;;
38717;SDS011;24468;52.128;9.278;2023-03-20T12:45:16;7.20;;;6.35;;
38717;SDS011;24468;52.128;9.278;2023-03-20T12:47:56;12.25;;;7.20;;
38717;SDS011;24468;52.128;9.278;2023-03-20T12:50:54;9.80;;;7.20;;
38717;SDS011;24468;52.128;9.278;2023-03-20T13:02:22;12.40;;;7.95;;
38717;SDS011;24468;52.128;9.278;2023-03-20T13:07:59;10.70;;;8.60;;
38717;SDS011;24468;52.128;9.278;2023-03-20T13:10:56;16.90;;;8.07;;
38717;SDS011;24468;52.128;9.278;2023-03-20T13:16:51;13.65;;;10.40;;
38717;SDS011;24468;52.128;9.278;2023-03-20T13:19:36;8.80;;;8.00;;
38717;SDS011;24468;52.128;9.278;2023-03-20T13:34:10;9.98;;;8.52;;
38717;SDS011;24468;52.128;9.278;2023-03-20T13:39:43;12.98;;;9.82;;
38717;SDS011;24468;52.128;9.278;2023-03-20T13:42:22;11.18;;;8.13;;
38717;SDS011;24468;52.128;9.278;2023-03-20T13:45:03;10.15;;;8.98;;
38717;SDS011;24468;52.128;9.278;2023-03-20T13:47:38;14.90;;;9.43;;
38717;SDS011;24468;52.128;9.278;2023-03-20T13:50:11;10.52;;;7.28;;
38717;SDS011;24468;52.128;9.278;2023-03-20T13:53:07;9.73;;;8.02;;
38717;SDS011;24468;52.128;9.278;2023-03-20T13:56:00;9.43;;;8.32;;
38717;SDS011;24468;52.128;9.278;2023-03-20T13:58:54;8.63;;;7.15;;
38717;SDS011;24468;52.128;9.278;2023-03-20T14:01:33;8.75;;;6.90;;
38717;SDS011;24468;52.128;9.278;2023-03-20T14:04:01;8.60;;;6.68;;
38717;SDS011;24468;52.128;9.278;2023-03-20T14:11:57;9.68;;;6.00;;
38717;SDS011;24468;52.128;9.278;2023-03-20T14:14:49;9.90;;;5.63;;
38717;SDS011;24468;52.128;9.278;2023-03-20T14:17:27;7.05;;;4.80;;
38717;SDS011;24468;52.128;9.278;2023-03-20T14:19:55;7.57;;;5.15;;
38717;SDS011;24468;52.128;9.278;2023-03-20T14:22:28;6.63;;;5.55;;
38717;SDS011;24468;52.128;9.278;2023-03-20T14:25:03;9.75;;;5.00;;
38717;SDS011;24468;52.128;9.278;2023-03-20T14:27:36;8.93;;;5.97;;
38717;SDS011;24468;52.128;9.278;2023-03-20T14:33:29;6.65;;;4.78;;
38717;SDS011;24468;52.128;9.278;2023-03-20T14:35:48;7.70;;;5.13;;
38717;SDS011;24468;52.128;9.278;2023-03-20T14:38:34;5.70;;;4.60;;
38717;SDS011;24468;52.128;9.278;2023-03-20T14:43:51;8.75;;;5.25;;
38717;SDS011;24468;52.128;9.278;2023-03-20T14:46:51;7.28;;;4.57;;
38717;SDS011;24468;52.128;9.278;2023-03-20T14:52:31;8.10;;;5.20;;
38717;SDS011;24468;52.128;9.278;2023-03-20T14:55:31;8.07;;;4.80;;
38717;SDS011;24468;52.128;9.278;2023-03-20T15:03:50;6.00;;;5.30;;
38717;SDS011;24468;52.128;9.278;2023-03-20T15:06:30;10.77;;;6.75;;
38717;SDS011;24468;52.128;9.278;2023-03-20T15:08:58;8.35;;;6.68;;
38717;SDS011;24468;52.128;9.278;2023-03-20T15:11:30;9.57;;;6.50;;
38717;SDS011;24468;52.128;9.278;2023-03-20T15:13:59;7.38;;;6.43;;
38717;SDS011;24468;52.128;9.278;2023-03-20T15:16:29;11.60;;;6.55;;
38717;SDS011;24468;52.128;9.278;2023-03-20T15:18:57;7.22;;;5.97;;
38717;SDS011;24468;52.128;9.278;2023-03-20T15:21:33;9.13;;;5.80;;
38717;SDS011;24468;52.128;9.278;2023-03-20T15:24:02;9.15;;;6.60;;
38717;SDS011;24468;52.128;9.278;2023-03-20T15:26:30;7.05;;;5.95;;
38717;SDS011;24468;52.128;9.278;2023-03-20T15:29:02;7.75;;;6.55;;
38717;SDS011;24468;52.128;9.278;2023-03-20T15:31:34;7.95;;;5.70;;
38717;SDS011;24468;52.128;9.278;2023-03-20T15:34:05;7.68;;;6.28;;
38717;SDS011;24468;52.128;9.278;2023-03-20T15:36:37;8.20;;;6.25;;
38717;SDS011;24468;52.128;9.278;2023-03-20T15:39:06;8.10;;;6.00;;
38717;SDS011;24468;52.128;9.278;2023-03-20T15:41:42;9.02;;;6.55;;
38717;SDS011;24468;52.128;9.278;2023-03-20T15:44:16;8.82;;;6.57;;
38717;SDS011;24468;52.128;9.278;2023-03-20T15:46:50;13.05;;;5.93;;
38717;SDS011;24468;52.128;9.278;2023-03-20T15:49:27;7.05;;;5.40;;
38717;SDS011;24468;52.128;9.278;2023-03-20T15:51:57;5.82;;;4.97;;
38717;SDS011;24468;52.128;9.278;2023-03-20T15:54:27;7.35;;;5.80;;
38717;SDS011;24468;52.128;9.278;2023-03-20T15:56:55;6.97;;;5.65;;
38717;SDS011;24468;52.128;9.278;2023-03-20T15:59:25;7.25;;;5.50;;
38717;SDS011;24468;52.128;9.278;2023-03-20T16:01:55;9.57;;;5.57;;
38717;SDS011;24468;52.128;9.278;2023-03-20T16:04:22;8.48;;;5.32;;
38717;SDS011;24468;52.128;9.278;2023-03-20T16:06:53;8.07;;;4.40;;
38717;SDS011;24468;52.128;9.278;2023-03-20T16:09:25;6.63;;;4.80;;
38717;SDS011;24468;52.128;9.278;2023-03-20T16:12:01;5.90;;;4.20;;
38717;SDS011;24468;52.128;9.278;2023-03-20T16:14:31;7.72;;;3.88;;
38717;SDS011;24468;52.128;9.278;2023-03-20T16:16:59;8.75;;;4.45;;
38717;SDS011;24468;52.128;9.278;2023-03-20T16:19:27;5.40;;;4.05;;
38717;SDS011;24468;52.128;9.278;2023-03-20T16:21:57;8.57;;;4.45;;
38717;SDS011;24468;52.128;9.278;2023-03-20T16:24:28;6.28;;;3.63;;
38717;SDS011;24468;52.128;9.278;2023-03-20T16:26:59;7.07;;;3.60;;
38717;SDS011;24468;52.128;9.278;2023-03-20T16:29:30;6.50;;;3.65;;
38717;SDS011;24468;52.128;9.278;2023-03-20T16:31:57;7.35;;;3.67;;
38717;SDS011;24468;52.128;9.278;2023-03-20T16:34:34;13.10;;;4.05;;
38717;SDS011;24468;52.128;9.278;2023-03-20T16:37:05;6.07;;;3.33;;
38717;SDS011;24468;52.128;9.278;2023-03-20T16:42:44;7.35;;;2.88;;
38717;SDS011;24468;52.128;9.278;2023-03-20T16:45:15;6.28;;;3.10;;
38717;SDS011;24468;52.128;9.278;2023-03-20T16:47:49;9.63;;;3.75;;
38717;SDS011;24468;52.128;9.278;2023-03-20T16:50:16;6.57;;;3.53;;